sensor_id;sensor_type;location;lat;lon;timestamp;P1;durP1;ratioP1;P2;durP2;ratioP2
43529;SDS011;55654;50.966;6.878;2023-09-19T00:00:23;4.43;;;1.95;;
43529;SDS011;55654;50.966;6.878;2023-09-19T00:02:54;5.25;;;1.60;;
43529;SDS011;55654;50.966;6.878;2023-09-19T00:05:24;8.98;;;2.17;;
43529;SDS011;55654;50.966;6.878;2023-09-19T00:07:53;7.53;;;1.95;;
43529;SDS011;55654;50.966;6.878;2023-09-19T00:10:23;7.80;;;1.65;;
43529;SDS011;55654;50.966;6.878;2023-09-19T00:12:56;8.23;;;1.85;;
43529;SDS011;55654;50.966;6.878;2023-09-19T00:15:25;4.78;;;1.65;;
43529;SDS011;55654;50.966;6.878;2023-09-19T00:17:53;7.72;;;1.90;;
43529;SDS011;55654;50.966;6.878;2023-09-19T00:20:22;6.18;;;1.75;;
43529;SDS011;55654;50.966;6.878;2023-09-19T00:22:51;4.90;;;1.60;;
43529;SDS011;55654;50.966;6.878;2023-09-19T00:25:19;12.40;;;2.53;;
43529;SDS011;55654;50.966;6.878;2023-09-19T00:27:48;6.72;;;1.38;;
43529;SDS011;55654;50.966;6.878;2023-09-19T00:30:16;7.13;;;2.13;;
43529;SDS011;55654;50.966;6.878;2023-09-19T00:32:46;6.63;;;1.80;;
43529;SDS011;55654;50.966;6.878;2023-09-19T00:35:14;7.50;;;1.63;;
43529;SDS011;55654;50.966;6.878;2023-09-19T00:37:40;16.38;;;2.47;;
43529;SDS011;55654;50.966;6.878;2023-09-19T00:40:07;4.22;;;1.75;;
43529;SDS011;55654;50.966;6.878;2023-09-19T00:42:47;7.78;;;1.85;;
43529;SDS011;55654;50.966;6.878;2023-09-19T00:45:14;9.43;;;2.10;;
43529;SDS011;55654;50.966;6.878;2023-09-19T00:47:48;10.15;;;2.63;;
43529;SDS011;55654;50.966;6.878;2023-09-19T00:50:19;13.13;;;2.45;;
43529;SDS011;55654;50.966;6.878;2023-09-19T00:52:50;9.25;;;1.80;;
43529;SDS011;55654;50.966;6.878;2023-09-19T00:55:24;14.13;;;1.80;;
43529;SDS011;55654;50.966;6.878;2023-09-19T00:57:52;7.25;;;1.77;;
43529;SDS011;55654;50.966;6.878;2023-09-19T01:00:24;11.80;;;2.67;;
43529;SDS011;55654;50.966;6.878;2023-09-19T01:02:49;9.05;;;1.73;;
43529;SDS011;55654;50.966;6.878;2023-09-19T01:05:15;9.85;;;2.08;;
43529;SDS011;55654;50.966;6.878;2023-09-19T01:07:41;8.10;;;1.60;;
43529;SDS011;55654;50.966;6.878;2023-09-19T01:10:14;11.32;;;2.00;;
43529;SDS011;55654;50.966;6.878;2023-09-19T01:13:03;5.45;;;1.85;;
43529;SDS011;55654;50.966;6.878;2023-09-19T01:32:32;10.88;;;2.45;;
43529;SDS011;55654;50.966;6.878;2023-09-19T01:35:03;8.20;;;1.90;;
43529;SDS011;55654;50.966;6.878;2023-09-19T01:37:31;5.78;;;1.90;;
43529;SDS011;55654;50.966;6.878;2023-09-19T01:40:02;9.07;;;1.70;;
43529;SDS011;55654;50.966;6.878;2023-09-19T01:42:48;10.45;;;1.58;;
43529;SDS011;55654;50.966;6.878;2023-09-19T01:45:37;12.43;;;2.47;;
43529;SDS011;55654;50.966;6.878;2023-09-19T01:48:35;5.18;;;1.73;;
43529;SDS011;55654;50.966;6.878;2023-09-19T01:51:13;7.63;;;2.45;;
43529;SDS011;55654;50.966;6.878;2023-09-19T01:56:20;13.55;;;1.80;;
43529;SDS011;55654;50.966;6.878;2023-09-19T01:58:51;7.90;;;1.80;;
43529;SDS011;55654;50.966;6.878;2023-09-19T02:01:24;12.25;;;1.88;;
43529;SDS011;55654;50.966;6.878;2023-09-19T02:03:51;10.88;;;2.08;;
43529;SDS011;55654;50.966;6.878;2023-09-19T02:06:18;9.82;;;2.30;;
43529;SDS011;55654;50.966;6.878;2023-09-19T02:08:46;8.75;;;2.58;;
43529;SDS011;55654;50.966;6.878;2023-09-19T02:11:12;9.77;;;2.03;;
43529;SDS011;55654;50.966;6.878;2023-09-19T02:13:38;13.80;;;1.88;;
43529;SDS011;55654;50.966;6.878;2023-09-19T02:16:06;8.50;;;2.00;;
43529;SDS011;55654;50.966;6.878;2023-09-19T02:18:32;11.85;;;2.08;;
43529;SDS011;55654;50.966;6.878;2023-09-19T02:21:04;11.95;;;2.00;;
43529;SDS011;55654;50.966;6.878;2023-09-19T02:23:31;8.52;;;2.00;;
43529;SDS011;55654;50.966;6.878;2023-09-19T02:26:00;9.05;;;1.73;;
43529;SDS011;55654;50.966;6.878;2023-09-19T02:28:29;10.80;;;2.17;;
43529;SDS011;55654;50.966;6.878;2023-09-19T02:30:57;7.68;;;2.47;;
43529;SDS011;55654;50.966;6.878;2023-09-19T02:33:23;8.80;;;1.83;;
43529;SDS011;55654;50.966;6.878;2023-09-19T02:35:55;9.68;;;2.75;;
43529;SDS011;55654;50.966;6.878;2023-09-19T02:38:24;12.80;;;2.40;;
43529;SDS011;55654;50.966;6.878;2023-09-19T02:40:51;13.68;;;2.53;;
43529;SDS011;55654;50.966;6.878;2023-09-19T02:43:20;10.13;;;2.58;;
43529;SDS011;55654;50.966;6.878;2023-09-19T02:45:46;7.82;;;1.95;;
43529;SDS011;55654;50.966;6.878;2023-09-19T02:48:15;12.88;;;2.05;;
43529;SDS011;55654;50.966;6.878;2023-09-19T02:50:41;11.73;;;2.22;;
43529;SDS011;55654;50.966;6.878;2023-09-19T02:53:07;10.13;;;1.80;;
43529;SDS011;55654;50.966;6.878;2023-09-19T02:55:33;7.38;;;1.73;;
43529;SDS011;55654;50.966;6.878;2023-09-19T02:57:59;11.52;;;2.83;;
43529;SDS011;55654;50.966;6.878;2023-09-19T03:00:32;9.88;;;1.88;;
43529;SDS011;55654;50.966;6.878;2023-09-19T03:02:59;15.68;;;2.30;;
43529;SDS011;55654;50.966;6.878;2023-09-19T03:05:27;12.13;;;2.65;;
43529;SDS011;55654;50.966;6.878;2023-09-19T03:07:56;9.68;;;1.98;;
43529;SDS011;55654;50.966;6.878;2023-09-19T03:10:25;11.05;;;2.22;;
43529;SDS011;55654;50.966;6.878;2023-09-19T03:12:51;9.05;;;2.85;;
43529;SDS011;55654;50.966;6.878;2023-09-19T03:15:16;9.57;;;2.28;;
43529;SDS011;55654;50.966;6.878;2023-09-19T03:17:46;7.45;;;1.98;;
43529;SDS011;55654;50.966;6.878;2023-09-19T03:20:12;16.95;;;2.63;;
43529;SDS011;55654;50.966;6.878;2023-09-19T03:22:42;11.13;;;2.15;;
43529;SDS011;55654;50.966;6.878;2023-09-19T03:25:11;13.57;;;2.33;;
43529;SDS011;55654;50.966;6.878;2023-09-19T03:27:38;7.93;;;1.83;;
43529;SDS011;55654;50.966;6.878;2023-09-19T03:30:07;10.35;;;2.20;;
43529;SDS011;55654;50.966;6.878;2023-09-19T03:32:36;15.18;;;3.08;;
43529;SDS011;55654;50.966;6.878;2023-09-19T03:35:05;13.98;;;2.28;;
43529;SDS011;55654;50.966;6.878;2023-09-19T03:37:38;19.80;;;2.60;;
43529;SDS011;55654;50.966;6.878;2023-09-19T03:40:08;14.25;;;2.38;;
43529;SDS011;55654;50.966;6.878;2023-09-19T03:42:37;14.82;;;2.15;;
43529;SDS011;55654;50.966;6.878;2023-09-19T03:45:09;8.07;;;2.53;;
43529;SDS011;55654;50.966;6.878;2023-09-19T03:47:43;8.38;;;1.92;;
43529;SDS011;55654;50.966;6.878;2023-09-19T03:50:12;10.18;;;2.70;;
43529;SDS011;55654;50.966;6.878;2023-09-19T03:52:42;8.65;;;2.67;;
43529;SDS011;55654;50.966;6.878;2023-09-19T03:55:08;10.45;;;2.30;;
43529;SDS011;55654;50.966;6.878;2023-09-19T03:57:35;13.00;;;2.83;;
43529;SDS011;55654;50.966;6.878;2023-09-19T04:00:03;4.88;;;2.00;;
43529;SDS011;55654;50.966;6.878;2023-09-19T04:02:39;7.93;;;2.13;;
43529;SDS011;55654;50.966;6.878;2023-09-19T04:05:06;9.52;;;2.53;;
43529;SDS011;55654;50.966;6.878;2023-09-19T04:07:31;13.30;;;2.70;;
43529;SDS011;55654;50.966;6.878;2023-09-19T04:09:59;10.75;;;2.60;;
43529;SDS011;55654;50.966;6.878;2023-09-19T04:12:28;10.35;;;2.40;;
43529;SDS011;55654;50.966;6.878;2023-09-19T04:14:58;14.75;;;2.42;;
43529;SDS011;55654;50.966;6.878;2023-09-19T04:17:23;8.80;;;2.22;;
43529;SDS011;55654;50.966;6.878;2023-09-19T04:19:49;7.93;;;2.22;;
43529;SDS011;55654;50.966;6.878;2023-09-19T04:22:18;8.73;;;2.15;;
43529;SDS011;55654;50.966;6.878;2023-09-19T04:24:44;7.47;;;1.67;;
43529;SDS011;55654;50.966;6.878;2023-09-19T04:27:10;14.00;;;2.20;;
43529;SDS011;55654;50.966;6.878;2023-09-19T04:29:39;12.55;;;2.47;;
43529;SDS011;55654;50.966;6.878;2023-09-19T04:32:06;12.57;;;2.38;;
43529;SDS011;55654;50.966;6.878;2023-09-19T04:34:35;15.65;;;2.30;;
43529;SDS011;55654;50.966;6.878;2023-09-19T04:37:01;10.48;;;2.42;;
43529;SDS011;55654;50.966;6.878;2023-09-19T04:39:27;11.57;;;2.10;;
43529;SDS011;55654;50.966;6.878;2023-09-19T04:41:57;8.95;;;2.60;;
43529;SDS011;55654;50.966;6.878;2023-09-19T04:44:25;13.30;;;2.50;;
43529;SDS011;55654;50.966;6.878;2023-09-19T04:46:50;12.45;;;1.90;;
43529;SDS011;55654;50.966;6.878;2023-09-19T04:49:16;11.13;;;2.15;;
43529;SDS011;55654;50.966;6.878;2023-09-19T04:51:44;13.02;;;1.92;;
43529;SDS011;55654;50.966;6.878;2023-09-19T04:54:12;16.23;;;2.65;;
43529;SDS011;55654;50.966;6.878;2023-09-19T04:56:40;11.60;;;2.22;;
43529;SDS011;55654;50.966;6.878;2023-09-19T04:59:08;9.57;;;2.58;;
43529;SDS011;55654;50.966;6.878;2023-09-19T05:01:38;10.00;;;2.20;;
43529;SDS011;55654;50.966;6.878;2023-09-19T05:04:06;11.82;;;2.17;;
43529;SDS011;55654;50.966;6.878;2023-09-19T05:06:32;12.20;;;2.53;;
43529;SDS011;55654;50.966;6.878;2023-09-19T05:08:58;16.35;;;2.80;;
43529;SDS011;55654;50.966;6.878;2023-09-19T05:11:25;12.85;;;2.60;;
43529;SDS011;55654;50.966;6.878;2023-09-19T05:13:51;11.73;;;2.88;;
43529;SDS011;55654;50.966;6.878;2023-09-19T05:16:18;12.23;;;3.22;;
43529;SDS011;55654;50.966;6.878;2023-09-19T05:18:45;13.15;;;2.15;;
43529;SDS011;55654;50.966;6.878;2023-09-19T05:21:11;13.48;;;2.58;;
43529;SDS011;55654;50.966;6.878;2023-09-19T05:23:37;16.13;;;3.05;;
43529;SDS011;55654;50.966;6.878;2023-09-19T05:26:06;12.10;;;2.53;;
43529;SDS011;55654;50.966;6.878;2023-09-19T05:28:31;11.68;;;2.72;;
43529;SDS011;55654;50.966;6.878;2023-09-19T05:31:00;10.82;;;2.10;;
43529;SDS011;55654;50.966;6.878;2023-09-19T05:33:29;9.13;;;1.88;;
43529;SDS011;55654;50.966;6.878;2023-09-19T05:35:58;13.77;;;1.83;;
43529;SDS011;55654;50.966;6.878;2023-09-19T05:38:25;10.50;;;2.15;;
43529;SDS011;55654;50.966;6.878;2023-09-19T05:40:52;9.05;;;2.60;;
43529;SDS011;55654;50.966;6.878;2023-09-19T05:43:18;12.77;;;2.00;;
43529;SDS011;55654;50.966;6.878;2023-09-19T05:45:44;7.20;;;1.73;;
43529;SDS011;55654;50.966;6.878;2023-09-19T05:48:14;20.55;;;3.22;;
43529;SDS011;55654;50.966;6.878;2023-09-19T05:50:41;16.10;;;2.65;;
43529;SDS011;55654;50.966;6.878;2023-09-19T05:53:07;12.32;;;2.33;;
43529;SDS011;55654;50.966;6.878;2023-09-19T05:55:39;13.48;;;2.88;;
43529;SDS011;55654;50.966;6.878;2023-09-19T05:58:07;14.20;;;2.22;;
43529;SDS011;55654;50.966;6.878;2023-09-19T06:00:39;8.25;;;2.10;;
43529;SDS011;55654;50.966;6.878;2023-09-19T06:03:06;9.80;;;2.45;;
43529;SDS011;55654;50.966;6.878;2023-09-19T06:05:37;13.15;;;2.30;;
43529;SDS011;55654;50.966;6.878;2023-09-19T06:08:05;16.73;;;2.70;;
43529;SDS011;55654;50.966;6.878;2023-09-19T06:10:32;12.70;;;2.15;;
43529;SDS011;55654;50.966;6.878;2023-09-19T06:12:59;13.73;;;2.75;;
43529;SDS011;55654;50.966;6.878;2023-09-19T06:15:25;13.73;;;2.33;;
43529;SDS011;55654;50.966;6.878;2023-09-19T06:17:55;10.30;;;2.20;;
43529;SDS011;55654;50.966;6.878;2023-09-19T06:20:21;11.73;;;3.33;;
43529;SDS011;55654;50.966;6.878;2023-09-19T06:22:48;13.65;;;3.00;;
43529;SDS011;55654;50.966;6.878;2023-09-19T06:25:15;12.23;;;2.60;;
43529;SDS011;55654;50.966;6.878;2023-09-19T06:27:44;9.13;;;2.70;;
43529;SDS011;55654;50.966;6.878;2023-09-19T06:30:13;10.57;;;2.80;;
43529;SDS011;55654;50.966;6.878;2023-09-19T06:32:42;11.20;;;2.60;;
43529;SDS011;55654;50.966;6.878;2023-09-19T06:35:11;9.98;;;2.42;;
43529;SDS011;55654;50.966;6.878;2023-09-19T06:37:41;14.88;;;2.38;;
43529;SDS011;55654;50.966;6.878;2023-09-19T06:40:10;12.68;;;2.15;;
43529;SDS011;55654;50.966;6.878;2023-09-19T06:42:40;11.55;;;2.60;;
43529;SDS011;55654;50.966;6.878;2023-09-19T06:45:09;13.45;;;2.40;;
43529;SDS011;55654;50.966;6.878;2023-09-19T06:47:38;11.73;;;2.00;;
43529;SDS011;55654;50.966;6.878;2023-09-19T06:50:04;8.93;;;1.75;;
43529;SDS011;55654;50.966;6.878;2023-09-19T06:52:31;17.13;;;3.22;;
43529;SDS011;55654;50.966;6.878;2023-09-19T06:54:58;12.80;;;2.40;;
43529;SDS011;55654;50.966;6.878;2023-09-19T06:57:23;7.47;;;1.90;;
43529;SDS011;55654;50.966;6.878;2023-09-19T06:59:49;12.85;;;3.20;;
43529;SDS011;55654;50.966;6.878;2023-09-19T07:02:19;12.27;;;2.55;;
43529;SDS011;55654;50.966;6.878;2023-09-19T07:04:46;15.30;;;2.90;;
43529;SDS011;55654;50.966;6.878;2023-09-19T07:07:15;18.75;;;3.05;;
43529;SDS011;55654;50.966;6.878;2023-09-19T07:09:43;13.82;;;3.50;;
43529;SDS011;55654;50.966;6.878;2023-09-19T07:12:13;13.23;;;2.83;;
43529;SDS011;55654;50.966;6.878;2023-09-19T07:14:39;14.10;;;3.03;;
43529;SDS011;55654;50.966;6.878;2023-09-19T07:17:10;16.10;;;2.75;;
43529;SDS011;55654;50.966;6.878;2023-09-19T07:19:46;13.60;;;2.55;;
43529;SDS011;55654;50.966;6.878;2023-09-19T07:22:13;12.02;;;2.70;;
43529;SDS011;55654;50.966;6.878;2023-09-19T07:24:41;11.63;;;2.85;;
43529;SDS011;55654;50.966;6.878;2023-09-19T07:27:10;9.80;;;1.73;;
43529;SDS011;55654;50.966;6.878;2023-09-19T07:29:35;14.48;;;2.75;;
43529;SDS011;55654;50.966;6.878;2023-09-19T07:32:01;14.85;;;3.10;;
43529;SDS011;55654;50.966;6.878;2023-09-19T07:34:26;12.18;;;2.70;;
43529;SDS011;55654;50.966;6.878;2023-09-19T07:36:54;15.52;;;2.83;;
43529;SDS011;55654;50.966;6.878;2023-09-19T07:39:19;11.05;;;1.85;;
43529;SDS011;55654;50.966;6.878;2023-09-19T07:41:45;11.40;;;2.60;;
43529;SDS011;55654;50.966;6.878;2023-09-19T07:44:11;13.95;;;2.53;;
43529;SDS011;55654;50.966;6.878;2023-09-19T07:46:37;13.35;;;2.67;;
43529;SDS011;55654;50.966;6.878;2023-09-19T07:49:03;9.70;;;2.65;;
43529;SDS011;55654;50.966;6.878;2023-09-19T07:51:31;12.90;;;2.28;;
43529;SDS011;55654;50.966;6.878;2023-09-19T07:53:58;17.35;;;3.10;;
43529;SDS011;55654;50.966;6.878;2023-09-19T07:56:26;12.20;;;2.92;;
43529;SDS011;55654;50.966;6.878;2023-09-19T07:58:52;13.63;;;2.38;;
43529;SDS011;55654;50.966;6.878;2023-09-19T08:01:24;13.15;;;2.60;;
43529;SDS011;55654;50.966;6.878;2023-09-19T08:03:52;10.23;;;2.40;;
43529;SDS011;55654;50.966;6.878;2023-09-19T08:06:19;18.35;;;3.70;;
43529;SDS011;55654;50.966;6.878;2023-09-19T08:08:45;13.02;;;2.67;;
43529;SDS011;55654;50.966;6.878;2023-09-19T08:11:15;13.05;;;2.83;;
43529;SDS011;55654;50.966;6.878;2023-09-19T08:13:46;10.05;;;2.28;;
43529;SDS011;55654;50.966;6.878;2023-09-19T08:16:14;16.42;;;2.90;;
43529;SDS011;55654;50.966;6.878;2023-09-19T08:18:41;11.75;;;2.75;;
43529;SDS011;55654;50.966;6.878;2023-09-19T08:21:07;12.48;;;2.35;;
43529;SDS011;55654;50.966;6.878;2023-09-19T08:23:38;9.93;;;2.55;;
43529;SDS011;55654;50.966;6.878;2023-09-19T08:26:04;13.35;;;2.45;;
43529;SDS011;55654;50.966;6.878;2023-09-19T08:28:33;14.82;;;2.00;;
43529;SDS011;55654;50.966;6.878;2023-09-19T08:31:05;10.15;;;2.47;;
43529;SDS011;55654;50.966;6.878;2023-09-19T08:33:40;12.13;;;2.47;;
43529;SDS011;55654;50.966;6.878;2023-09-19T08:36:10;9.40;;;2.40;;
43529;SDS011;55654;50.966;6.878;2023-09-19T08:38:39;8.57;;;2.13;;
43529;SDS011;55654;50.966;6.878;2023-09-19T08:41:07;10.52;;;2.22;;
43529;SDS011;55654;50.966;6.878;2023-09-19T08:43:33;6.97;;;2.05;;
43529;SDS011;55654;50.966;6.878;2023-09-19T08:48:31;9.77;;;1.97;;
43529;SDS011;55654;50.966;6.878;2023-09-19T08:51:07;7.45;;;1.98;;
43529;SDS011;55654;50.966;6.878;2023-09-19T08:56:14;13.82;;;1.85;;
43529;SDS011;55654;50.966;6.878;2023-09-19T08:58:55;10.98;;;2.40;;
43529;SDS011;55654;50.966;6.878;2023-09-19T09:01:30;13.02;;;2.80;;
43529;SDS011;55654;50.966;6.878;2023-09-19T09:04:00;10.30;;;2.05;;
43529;SDS011;55654;50.966;6.878;2023-09-19T09:06:26;10.15;;;1.98;;
43529;SDS011;55654;50.966;6.878;2023-09-19T09:08:59;9.45;;;1.75;;
43529;SDS011;55654;50.966;6.878;2023-09-19T09:11:28;9.57;;;2.58;;
43529;SDS011;55654;50.966;6.878;2023-09-19T09:13:54;11.20;;;2.05;;
43529;SDS011;55654;50.966;6.878;2023-09-19T09:16:22;14.63;;;2.80;;
43529;SDS011;55654;50.966;6.878;2023-09-19T09:18:50;12.88;;;3.05;;
43529;SDS011;55654;50.966;6.878;2023-09-19T09:21:19;7.53;;;1.67;;
43529;SDS011;55654;50.966;6.878;2023-09-19T09:23:51;7.07;;;1.50;;
43529;SDS011;55654;50.966;6.878;2023-09-19T09:29:04;7.53;;;1.67;;
43529;SDS011;55654;50.966;6.878;2023-09-19T09:31:32;9.27;;;2.03;;
43529;SDS011;55654;50.966;6.878;2023-09-19T09:34:00;7.90;;;1.50;;
43529;SDS011;55654;50.966;6.878;2023-09-19T09:36:36;7.88;;;2.28;;
43529;SDS011;55654;50.966;6.878;2023-09-19T09:39:07;6.93;;;2.50;;
43529;SDS011;55654;50.966;6.878;2023-09-19T09:41:49;7.25;;;2.03;;
43529;SDS011;55654;50.966;6.878;2023-09-19T09:44:16;7.47;;;1.90;;
43529;SDS011;55654;50.966;6.878;2023-09-19T09:46:46;7.47;;;1.92;;
43529;SDS011;55654;50.966;6.878;2023-09-19T09:49:25;7.50;;;1.80;;
43529;SDS011;55654;50.966;6.878;2023-09-19T09:54:28;7.88;;;1.50;;
43529;SDS011;55654;50.966;6.878;2023-09-19T09:57:08;4.85;;;1.23;;
43529;SDS011;55654;50.966;6.878;2023-09-19T09:59:58;8.45;;;1.75;;
43529;SDS011;55654;50.966;6.878;2023-09-19T10:02:40;9.68;;;2.08;;
43529;SDS011;55654;50.966;6.878;2023-09-19T10:07:45;8.38;;;1.35;;
43529;SDS011;55654;50.966;6.878;2023-09-19T10:10:32;6.28;;;1.27;;
43529;SDS011;55654;50.966;6.878;2023-09-19T10:13:06;4.10;;;1.50;;
43529;SDS011;55654;50.966;6.878;2023-09-19T10:15:37;10.70;;;2.22;;
43529;SDS011;55654;50.966;6.878;2023-09-19T10:18:06;7.70;;;1.33;;
43529;SDS011;55654;50.966;6.878;2023-09-19T10:20:36;6.00;;;1.40;;
43529;SDS011;55654;50.966;6.878;2023-09-19T10:23:07;8.52;;;2.13;;
43529;SDS011;55654;50.966;6.878;2023-09-19T10:25:39;9.18;;;2.25;;
43529;SDS011;55654;50.966;6.878;2023-09-19T10:28:09;9.20;;;1.70;;
43529;SDS011;55654;50.966;6.878;2023-09-19T10:30:37;6.50;;;1.40;;
43529;SDS011;55654;50.966;6.878;2023-09-19T10:33:09;5.22;;;2.25;;
43529;SDS011;55654;50.966;6.878;2023-09-19T10:35:37;5.75;;;1.23;;
43529;SDS011;55654;50.966;6.878;2023-09-19T10:38:07;10.27;;;1.73;;
43529;SDS011;55654;50.966;6.878;2023-09-19T10:40:38;9.63;;;1.98;;
43529;SDS011;55654;50.966;6.878;2023-09-19T10:43:20;6.72;;;1.80;;
43529;SDS011;55654;50.966;6.878;2023-09-19T10:45:51;6.43;;;1.77;;
43529;SDS011;55654;50.966;6.878;2023-09-19T10:48:18;7.57;;;1.40;;
43529;SDS011;55654;50.966;6.878;2023-09-19T10:53:20;6.97;;;2.00;;
43529;SDS011;55654;50.966;6.878;2023-09-19T10:55:52;7.93;;;1.75;;
43529;SDS011;55654;50.966;6.878;2023-09-19T10:58:26;7.63;;;2.05;;
43529;SDS011;55654;50.966;6.878;2023-09-19T11:00:54;8.80;;;1.73;;
43529;SDS011;55654;50.966;6.878;2023-09-19T11:03:37;5.10;;;1.38;;
43529;SDS011;55654;50.966;6.878;2023-09-19T11:36:10;5.50;;;1.42;;
43529;SDS011;55654;50.966;6.878;2023-09-19T11:46:26;12.00;;;2.78;;
43529;SDS011;55654;50.966;6.878;2023-09-19T11:48:53;8.70;;;1.70;;
43529;SDS011;55654;50.966;6.878;2023-09-19T11:51:19;7.82;;;1.90;;
43529;SDS011;55654;50.966;6.878;2023-09-19T11:53:56;5.07;;;1.40;;
43529;SDS011;55654;50.966;6.878;2023-09-19T11:56:27;9.82;;;1.90;;
43529;SDS011;55654;50.966;6.878;2023-09-19T11:58:53;6.05;;;1.90;;
43529;SDS011;55654;50.966;6.878;2023-09-19T12:01:24;4.25;;;1.25;;
43529;SDS011;55654;50.966;6.878;2023-09-19T12:03:59;5.03;;;1.50;;
43529;SDS011;55654;50.966;6.878;2023-09-19T12:06:25;4.85;;;1.25;;
43529;SDS011;55654;50.966;6.878;2023-09-19T12:08:55;7.82;;;1.70;;
43529;SDS011;55654;50.966;6.878;2023-09-19T12:11:27;8.05;;;1.70;;
43529;SDS011;55654;50.966;6.878;2023-09-19T12:14:01;10.65;;;2.47;;
43529;SDS011;55654;50.966;6.878;2023-09-19T12:16:27;7.20;;;1.67;;
43529;SDS011;55654;50.966;6.878;2023-09-19T12:18:56;4.97;;;1.75;;
43529;SDS011;55654;50.966;6.878;2023-09-19T12:21:26;4.65;;;1.35;;
43529;SDS011;55654;50.966;6.878;2023-09-19T12:27:04;5.15;;;1.73;;
43529;SDS011;55654;50.966;6.878;2023-09-19T12:29:29;7.40;;;1.73;;
43529;SDS011;55654;50.966;6.878;2023-09-19T12:32:01;6.88;;;1.67;;
43529;SDS011;55654;50.966;6.878;2023-09-19T12:34:30;8.88;;;2.10;;
43529;SDS011;55654;50.966;6.878;2023-09-19T12:37:06;7.30;;;1.58;;
43529;SDS011;55654;50.966;6.878;2023-09-19T12:39:40;6.38;;;1.92;;
43529;SDS011;55654;50.966;6.878;2023-09-19T12:42:13;5.43;;;1.77;;
43529;SDS011;55654;50.966;6.878;2023-09-19T12:44:42;8.95;;;1.92;;
43529;SDS011;55654;50.966;6.878;2023-09-19T12:47:13;4.00;;;1.27;;
43529;SDS011;55654;50.966;6.878;2023-09-19T12:52:49;5.70;;;1.50;;
43529;SDS011;55654;50.966;6.878;2023-09-19T12:55:25;6.15;;;1.65;;
43529;SDS011;55654;50.966;6.878;2023-09-19T12:57:58;4.43;;;1.38;;
43529;SDS011;55654;50.966;6.878;2023-09-19T13:00:40;5.63;;;1.73;;
43529;SDS011;55654;50.966;6.878;2023-09-19T13:03:17;4.25;;;1.17;;
43529;SDS011;55654;50.966;6.878;2023-09-19T13:05:59;3.30;;;0.82;;
43529;SDS011;55654;50.966;6.878;2023-09-19T13:11:03;6.30;;;1.45;;
43529;SDS011;55654;50.966;6.878;2023-09-19T13:13:44;4.28;;;1.63;;
43529;SDS011;55654;50.966;6.878;2023-09-19T13:16:19;4.80;;;1.13;;
43529;SDS011;55654;50.966;6.878;2023-09-19T13:21:34;4.72;;;1.08;;
43529;SDS011;55654;50.966;6.878;2023-09-19T13:24:23;2.35;;;0.80;;
43529;SDS011;55654;50.966;6.878;2023-09-19T13:26:53;6.40;;;1.48;;
43529;SDS011;55654;50.966;6.878;2023-09-19T13:29:19;5.60;;;1.35;;
43529;SDS011;55654;50.966;6.878;2023-09-19T13:31:48;4.88;;;1.00;;
43529;SDS011;55654;50.966;6.878;2023-09-19T13:34:15;3.85;;;1.20;;
43529;SDS011;55654;50.966;6.878;2023-09-19T13:36:42;3.95;;;1.20;;
43529;SDS011;55654;50.966;6.878;2023-09-19T13:39:08;5.75;;;0.80;;
43529;SDS011;55654;50.966;6.878;2023-09-19T13:41:40;3.42;;;1.05;;
43529;SDS011;55654;50.966;6.878;2023-09-19T13:44:07;2.70;;;0.55;;
43529;SDS011;55654;50.966;6.878;2023-09-19T13:46:35;5.38;;;1.30;;
43529;SDS011;55654;50.966;6.878;2023-09-19T13:49:02;4.97;;;1.10;;
43529;SDS011;55654;50.966;6.878;2023-09-19T13:51:28;5.68;;;1.05;;
43529;SDS011;55654;50.966;6.878;2023-09-19T13:53:55;3.67;;;0.88;;
43529;SDS011;55654;50.966;6.878;2023-09-19T13:56:21;3.60;;;1.67;;
43529;SDS011;55654;50.966;6.878;2023-09-19T13:58:49;5.25;;;0.80;;
43529;SDS011;55654;50.966;6.878;2023-09-19T14:01:18;2.95;;;0.88;;
43529;SDS011;55654;50.966;6.878;2023-09-19T14:03:43;4.47;;;0.82;;
43529;SDS011;55654;50.966;6.878;2023-09-19T14:06:14;1.98;;;0.65;;
43529;SDS011;55654;50.966;6.878;2023-09-19T14:08:43;3.67;;;1.00;;
43529;SDS011;55654;50.966;6.878;2023-09-19T14:11:15;4.75;;;0.93;;
43529;SDS011;55654;50.966;6.878;2023-09-19T14:13:41;2.97;;;1.00;;
43529;SDS011;55654;50.966;6.878;2023-09-19T14:16:15;2.83;;;0.82;;
43529;SDS011;55654;50.966;6.878;2023-09-19T14:18:41;4.15;;;0.98;;
43529;SDS011;55654;50.966;6.878;2023-09-19T14:21:07;5.07;;;1.23;;
43529;SDS011;55654;50.966;6.878;2023-09-19T14:23:39;3.28;;;1.00;;
43529;SDS011;55654;50.966;6.878;2023-09-19T14:26:06;2.30;;;0.68;;
43529;SDS011;55654;50.966;6.878;2023-09-19T14:28:32;10.82;;;1.75;;
43529;SDS011;55654;50.966;6.878;2023-09-19T14:31:10;4.22;;;1.00;;
43529;SDS011;55654;50.966;6.878;2023-09-19T14:33:36;7.85;;;1.10;;
43529;SDS011;55654;50.966;6.878;2023-09-19T14:36:03;3.28;;;0.85;;
43529;SDS011;55654;50.966;6.878;2023-09-19T14:38:33;3.05;;;0.98;;
43529;SDS011;55654;50.966;6.878;2023-09-19T14:41:04;4.30;;;1.45;;
43529;SDS011;55654;50.966;6.878;2023-09-19T14:43:32;5.10;;;1.05;;
43529;SDS011;55654;50.966;6.878;2023-09-19T14:46:09;2.03;;;0.68;;
43529;SDS011;55654;50.966;6.878;2023-09-19T14:48:39;3.45;;;1.00;;
43529;SDS011;55654;50.966;6.878;2023-09-19T14:51:05;3.38;;;1.00;;
43529;SDS011;55654;50.966;6.878;2023-09-19T14:53:34;3.78;;;0.60;;
43529;SDS011;55654;50.966;6.878;2023-09-19T14:56:00;5.05;;;1.25;;
43529;SDS011;55654;50.966;6.878;2023-09-19T14:58:30;4.65;;;0.85;;
43529;SDS011;55654;50.966;6.878;2023-09-19T15:01:08;4.57;;;0.85;;
43529;SDS011;55654;50.966;6.878;2023-09-19T15:03:38;4.88;;;1.15;;
43529;SDS011;55654;50.966;6.878;2023-09-19T15:06:05;3.90;;;0.98;;
43529;SDS011;55654;50.966;6.878;2023-09-19T15:08:35;3.17;;;0.60;;
43529;SDS011;55654;50.966;6.878;2023-09-19T15:11:03;3.85;;;0.98;;
43529;SDS011;55654;50.966;6.878;2023-09-19T15:13:31;2.92;;;0.55;;
43529;SDS011;55654;50.966;6.878;2023-09-19T15:18:26;5.97;;;0.75;;
43529;SDS011;55654;50.966;6.878;2023-09-19T15:20:51;2.53;;;0.90;;
43529;SDS011;55654;50.966;6.878;2023-09-19T15:23:17;6.93;;;0.70;;
43529;SDS011;55654;50.966;6.878;2023-09-19T15:25:48;1.60;;;0.70;;
43529;SDS011;55654;50.966;6.878;2023-09-19T15:28:15;4.78;;;0.60;;
43529;SDS011;55654;50.966;6.878;2023-09-19T15:30:40;3.30;;;0.60;;
43529;SDS011;55654;50.966;6.878;2023-09-19T15:33:06;2.30;;;0.47;;
43529;SDS011;55654;50.966;6.878;2023-09-19T15:35:34;2.60;;;0.82;;
43529;SDS011;55654;50.966;6.878;2023-09-19T15:38:01;4.03;;;0.60;;
43529;SDS011;55654;50.966;6.878;2023-09-19T15:40:27;2.85;;;0.80;;
43529;SDS011;55654;50.966;6.878;2023-09-19T15:42:54;2.97;;;0.70;;
43529;SDS011;55654;50.966;6.878;2023-09-19T15:45:25;3.47;;;0.85;;
43529;SDS011;55654;50.966;6.878;2023-09-19T15:47:53;2.97;;;0.73;;
43529;SDS011;55654;50.966;6.878;2023-09-19T15:50:19;1.88;;;0.68;;
43529;SDS011;55654;50.966;6.878;2023-09-19T15:52:48;1.45;;;0.63;;
43529;SDS011;55654;50.966;6.878;2023-09-19T15:55:21;3.35;;;0.90;;
43529;SDS011;55654;50.966;6.878;2023-09-19T15:57:46;2.58;;;0.65;;
43529;SDS011;55654;50.966;6.878;2023-09-19T16:00:13;5.65;;;1.10;;
43529;SDS011;55654;50.966;6.878;2023-09-19T16:02:42;3.75;;;0.90;;
43529;SDS011;55654;50.966;6.878;2023-09-19T16:05:09;2.28;;;0.95;;
43529;SDS011;55654;50.966;6.878;2023-09-19T16:07:37;3.85;;;0.98;;
43529;SDS011;55654;50.966;6.878;2023-09-19T16:10:03;4.63;;;0.88;;
43529;SDS011;55654;50.966;6.878;2023-09-19T16:12:31;4.25;;;0.60;;
43529;SDS011;55654;50.966;6.878;2023-09-19T16:15:00;2.92;;;1.00;;
43529;SDS011;55654;50.966;6.878;2023-09-19T16:17:26;4.88;;;1.10;;
43529;SDS011;55654;50.966;6.878;2023-09-19T16:19:52;2.00;;;0.55;;
43529;SDS011;55654;50.966;6.878;2023-09-19T16:22:20;5.18;;;1.05;;